Aviation Digital Data Service (ADDS)

Output produced by TAFs form (2012 UTC 30 July 2015)
found at http://aviationweather.gov/adds/tafs/
 
KMTJ 301720Z 3018/3118 33007KT P6SM FEW120 SCT200 
     FM310300 14007KT P6SM SCT200 
     FM311000 13004KT P6SM SKC